sensor_id;sensor_type;location;lat;lon;timestamp;P1;P2
55770;HPM;41687;-33.234;-60.334;2023-08-06T00:01:13;16.00;15.00
55770;HPM;41687;-33.234;-60.334;2023-08-06T00:03:40;16.50;15.50
55770;HPM;41687;-33.234;-60.334;2023-08-06T00:06:08;17.50;16.50
55770;HPM;41687;-33.234;-60.334;2023-08-06T00:08:36;22.00;21.00
55770;HPM;41687;-33.234;-60.334;2023-08-06T00:11:03;19.50;18.50
55770;HPM;41687;-33.234;-60.334;2023-08-06T00:13:31;16.25;15.25
55770;HPM;41687;-33.234;-60.334;2023-08-06T00:16:11;14.67;13.67
55770;HPM;41687;-33.234;-60.334;2023-08-06T00:18:40;16.75;15.75
55770;HPM;41687;-33.234;-60.334;2023-08-06T00:21:07;15.50;14.50
55770;HPM;41687;-33.234;-60.334;2023-08-06T00:23:35;16.75;15.75
55770;HPM;41687;-33.234;-60.334;2023-08-06T00:26:03;13.75;12.75
55770;HPM;41687;-33.234;-60.334;2023-08-06T00:28:30;14.00;13.00
55770;HPM;41687;-33.234;-60.334;2023-08-06T00:30:57;18.25;17.25
55770;HPM;41687;-33.234;-60.334;2023-08-06T00:33:25;19.75;18.75
55770;HPM;41687;-33.234;-60.334;2023-08-06T00:35:53;18.50;17.50
55770;HPM;41687;-33.234;-60.334;2023-08-06T00:38:20;16.33;15.33
55770;HPM;41687;-33.234;-60.334;2023-08-06T00:40:48;15.75;14.75
55770;HPM;41687;-33.234;-60.334;2023-08-06T00:43:16;18.50;17.50
55770;HPM;41687;-33.234;-60.334;2023-08-06T00:45:44;22.00;21.00
55770;HPM;41687;-33.234;-60.334;2023-08-06T00:48:11;22.25;21.25
55770;HPM;41687;-33.234;-60.334;2023-08-06T00:50:39;18.75;17.75
55770;HPM;41687;-33.234;-60.334;2023-08-06T00:53:08;20.00;19.00
55770;HPM;41687;-33.234;-60.334;2023-08-06T00:55:35;24.00;23.00
55770;HPM;41687;-33.234;-60.334;2023-08-06T00:58:03;28.00;26.00
55770;HPM;41687;-33.234;-60.334;2023-08-06T01:00:31;22.25;21.25
55770;HPM;41687;-33.234;-60.334;2023-08-06T01:02:59;17.50;16.50
55770;HPM;41687;-33.234;-60.334;2023-08-06T01:05:27;18.00;17.00
55770;HPM;41687;-33.234;-60.334;2023-08-06T01:11:05;15.50;14.50
55770;HPM;41687;-33.234;-60.334;2023-08-06T01:13:42;14.67;13.67
55770;HPM;41687;-33.234;-60.334;2023-08-06T01:16:20;15.00;14.00
55770;HPM;41687;-33.234;-60.334;2023-08-06T01:18:48;17.00;16.00
55770;HPM;41687;-33.234;-60.334;2023-08-06T01:21:16;15.00;14.00
55770;HPM;41687;-33.234;-60.334;2023-08-06T01:23:45;15.75;14.75
55770;HPM;41687;-33.234;-60.334;2023-08-06T01:31:50;20.75;19.75
55770;HPM;41687;-33.234;-60.334;2023-08-06T01:34:21;18.00;17.00
55770;HPM;41687;-33.234;-60.334;2023-08-06T01:36:50;19.50;18.50
55770;HPM;41687;-33.234;-60.334;2023-08-06T01:39:18;15.25;14.25
55770;HPM;41687;-33.234;-60.334;2023-08-06T01:41:48;18.00;17.00
55770;HPM;41687;-33.234;-60.334;2023-08-06T01:44:16;21.50;20.50
55770;HPM;41687;-33.234;-60.334;2023-08-06T01:46:44;18.67;17.67
55770;HPM;41687;-33.234;-60.334;2023-08-06T01:49:11;16.00;15.00
55770;HPM;41687;-33.234;-60.334;2023-08-06T01:51:39;14.25;13.25
55770;HPM;41687;-33.234;-60.334;2023-08-06T01:54:08;14.00;13.00
55770;HPM;41687;-33.234;-60.334;2023-08-06T01:56:35;11.00;10.00
55770;HPM;41687;-33.234;-60.334;2023-08-06T01:59:02;12.50;11.50
55770;HPM;41687;-33.234;-60.334;2023-08-06T02:01:31;12.75;11.75
55770;HPM;41687;-33.234;-60.334;2023-08-06T02:03:58;12.50;11.50
55770;HPM;41687;-33.234;-60.334;2023-08-06T02:06:25;13.50;12.50
55770;HPM;41687;-33.234;-60.334;2023-08-06T02:08:53;11.00;10.00
55770;HPM;41687;-33.234;-60.334;2023-08-06T02:13:47;8.75;7.75
55770;HPM;41687;-33.234;-60.334;2023-08-06T02:16:18;9.00;8.00
55770;HPM;41687;-33.234;-60.334;2023-08-06T02:18:46;8.25;7.25
55770;HPM;41687;-33.234;-60.334;2023-08-06T02:21:13;9.50;8.50
55770;HPM;41687;-33.234;-60.334;2023-08-06T02:26:09;11.50;10.50
55770;HPM;41687;-33.234;-60.334;2023-08-06T02:28:37;12.25;11.25
55770;HPM;41687;-33.234;-60.334;2023-08-06T02:31:05;10.75;9.75
55770;HPM;41687;-33.234;-60.334;2023-08-06T02:33:35;9.75;8.75
55770;HPM;41687;-33.234;-60.334;2023-08-06T02:36:02;9.00;8.00
55770;HPM;41687;-33.234;-60.334;2023-08-06T02:38:31;11.75;10.75
55770;HPM;41687;-33.234;-60.334;2023-08-06T02:40:58;11.33;10.33
55770;HPM;41687;-33.234;-60.334;2023-08-06T02:43:29;13.50;12.50
55770;HPM;41687;-33.234;-60.334;2023-08-06T02:45:57;17.00;16.00
55770;HPM;41687;-33.234;-60.334;2023-08-06T02:48:25;15.50;14.50
55770;HPM;41687;-33.234;-60.334;2023-08-06T02:50:52;22.00;21.00
55770;HPM;41687;-33.234;-60.334;2023-08-06T02:53:24;22.75;21.75
55770;HPM;41687;-33.234;-60.334;2023-08-06T02:55:52;24.00;23.00
55770;HPM;41687;-33.234;-60.334;2023-08-06T02:58:26;21.50;20.50
55770;HPM;41687;-33.234;-60.334;2023-08-06T03:01:08;19.00;18.00
55770;HPM;41687;-33.234;-60.334;2023-08-06T03:03:44;13.75;12.75
55770;HPM;41687;-33.234;-60.334;2023-08-06T03:06:19;9.00;8.00
55770;HPM;41687;-33.234;-60.334;2023-08-06T03:08:51;7.00;6.00
55770;HPM;41687;-33.234;-60.334;2023-08-06T03:11:19;7.50;6.50
55770;HPM;41687;-33.234;-60.334;2023-08-06T03:13:49;7.00;6.00
55770;HPM;41687;-33.234;-60.334;2023-08-06T03:16:17;8.00;7.00
55770;HPM;41687;-33.234;-60.334;2023-08-06T03:18:44;7.75;6.75
55770;HPM;41687;-33.234;-60.334;2023-08-06T03:23:39;8.25;7.25
55770;HPM;41687;-33.234;-60.334;2023-08-06T03:26:07;8.00;7.00
55770;HPM;41687;-33.234;-60.334;2023-08-06T03:28:36;8.75;7.75
55770;HPM;41687;-33.234;-60.334;2023-08-06T03:31:05;8.75;7.75
55770;HPM;41687;-33.234;-60.334;2023-08-06T03:33:39;8.00;7.00
55770;HPM;41687;-33.234;-60.334;2023-08-06T03:36:13;8.00;7.00
55770;HPM;41687;-33.234;-60.334;2023-08-06T03:38:41;7.00;6.00
55770;HPM;41687;-33.234;-60.334;2023-08-06T03:41:11;7.50;6.50
55770;HPM;41687;-33.234;-60.334;2023-08-06T03:46:10;8.75;7.75
55770;HPM;41687;-33.234;-60.334;2023-08-06T03:48:39;8.00;7.00
55770;HPM;41687;-33.234;-60.334;2023-08-06T03:53:33;7.00;6.00
55770;HPM;41687;-33.234;-60.334;2023-08-06T03:58:30;9.25;8.25
55770;HPM;41687;-33.234;-60.334;2023-08-06T04:01:01;9.00;8.00
55770;HPM;41687;-33.234;-60.334;2023-08-06T04:03:36;10.75;9.75
55770;HPM;41687;-33.234;-60.334;2023-08-06T04:06:04;13.75;12.75
55770;HPM;41687;-33.234;-60.334;2023-08-06T04:08:32;13.75;12.75
55770;HPM;41687;-33.234;-60.334;2023-08-06T04:11:02;19.00;18.00
55770;HPM;41687;-33.234;-60.334;2023-08-06T04:13:29;17.50;16.50
55770;HPM;41687;-33.234;-60.334;2023-08-06T04:16:05;17.67;16.67
55770;HPM;41687;-33.234;-60.334;2023-08-06T04:18:33;11.00;10.00
55770;HPM;41687;-33.234;-60.334;2023-08-06T04:21:01;9.00;8.00
55770;HPM;41687;-33.234;-60.334;2023-08-06T04:23:29;9.00;8.00
55770;HPM;41687;-33.234;-60.334;2023-08-06T04:26:01;8.00;7.00
55770;HPM;41687;-33.234;-60.334;2023-08-06T04:28:33;8.00;7.00
55770;HPM;41687;-33.234;-60.334;2023-08-06T04:31:01;7.00;6.00
55770;HPM;41687;-33.234;-60.334;2023-08-06T04:33:31;8.00;7.00
55770;HPM;41687;-33.234;-60.334;2023-08-06T04:36:06;7.75;6.75
55770;HPM;41687;-33.234;-60.334;2023-08-06T04:38:34;8.25;7.25
55770;HPM;41687;-33.234;-60.334;2023-08-06T04:41:02;9.00;8.00
55770;HPM;41687;-33.234;-60.334;2023-08-06T04:43:30;7.50;6.50
55770;HPM;41687;-33.234;-60.334;2023-08-06T04:45:58;7.75;6.75
55770;HPM;41687;-33.234;-60.334;2023-08-06T04:48:26;9.00;8.00
55770;HPM;41687;-33.234;-60.334;2023-08-06T04:50:53;7.75;6.75
55770;HPM;41687;-33.234;-60.334;2023-08-06T04:53:22;8.00;7.00
55770;HPM;41687;-33.234;-60.334;2023-08-06T04:55:49;9.00;8.00
55770;HPM;41687;-33.234;-60.334;2023-08-06T04:58:17;13.00;12.00
55770;HPM;41687;-33.234;-60.334;2023-08-06T05:00:44;19.50;18.50
55770;HPM;41687;-33.234;-60.334;2023-08-06T05:03:12;22.25;21.25
55770;HPM;41687;-33.234;-60.334;2023-08-06T05:05:42;15.75;14.75
55770;HPM;41687;-33.234;-60.334;2023-08-06T05:08:15;12.75;11.75
55770;HPM;41687;-33.234;-60.334;2023-08-06T05:10:44;10.00;9.00
55770;HPM;41687;-33.234;-60.334;2023-08-06T05:13:11;8.75;7.75
55770;HPM;41687;-33.234;-60.334;2023-08-06T05:15:40;9.00;8.00
55770;HPM;41687;-33.234;-60.334;2023-08-06T05:18:11;8.00;7.00
55770;HPM;41687;-33.234;-60.334;2023-08-06T05:20:40;9.00;8.00
55770;HPM;41687;-33.234;-60.334;2023-08-06T05:23:09;9.25;8.25
55770;HPM;41687;-33.234;-60.334;2023-08-06T05:25:36;11.75;10.75
55770;HPM;41687;-33.234;-60.334;2023-08-06T05:28:04;15.00;14.00
55770;HPM;41687;-33.234;-60.334;2023-08-06T05:30:32;16.00;15.00
55770;HPM;41687;-33.234;-60.334;2023-08-06T05:33:00;17.75;16.75
55770;HPM;41687;-33.234;-60.334;2023-08-06T05:35:27;17.00;16.00
55770;HPM;41687;-33.234;-60.334;2023-08-06T05:37:54;18.00;17.00
55770;HPM;41687;-33.234;-60.334;2023-08-06T05:40:22;16.75;15.75
55770;HPM;41687;-33.234;-60.334;2023-08-06T05:42:53;14.00;13.00
55770;HPM;41687;-33.234;-60.334;2023-08-06T05:45:21;14.67;13.67
55770;HPM;41687;-33.234;-60.334;2023-08-06T05:47:48;12.67;11.67
55770;HPM;41687;-33.234;-60.334;2023-08-06T05:50:16;13.00;12.00
55770;HPM;41687;-33.234;-60.334;2023-08-06T05:52:44;13.25;12.25
55770;HPM;41687;-33.234;-60.334;2023-08-06T05:55:11;10.75;9.75
55770;HPM;41687;-33.234;-60.334;2023-08-06T05:57:39;8.75;7.75
55770;HPM;41687;-33.234;-60.334;2023-08-06T06:00:07;9.00;8.00
55770;HPM;41687;-33.234;-60.334;2023-08-06T06:02:40;7.75;6.75
55770;HPM;41687;-33.234;-60.334;2023-08-06T06:05:08;9.00;8.00
55770;HPM;41687;-33.234;-60.334;2023-08-06T06:07:35;7.67;6.67
55770;HPM;41687;-33.234;-60.334;2023-08-06T06:10:03;7.00;6.00
55770;HPM;41687;-33.234;-60.334;2023-08-06T06:12:31;7.75;6.75
55770;HPM;41687;-33.234;-60.334;2023-08-06T06:14:59;9.00;8.00
55770;HPM;41687;-33.234;-60.334;2023-08-06T06:17:27;9.00;8.00
55770;HPM;41687;-33.234;-60.334;2023-08-06T06:19:55;10.00;9.00
55770;HPM;41687;-33.234;-60.334;2023-08-06T06:22:22;10.25;9.25
55770;HPM;41687;-33.234;-60.334;2023-08-06T06:24:51;12.75;11.75
55770;HPM;41687;-33.234;-60.334;2023-08-06T06:27:18;13.75;12.75
55770;HPM;41687;-33.234;-60.334;2023-08-06T06:29:45;14.00;13.00
55770;HPM;41687;-33.234;-60.334;2023-08-06T06:32:13;14.00;13.00
55770;HPM;41687;-33.234;-60.334;2023-08-06T06:34:41;13.67;12.67
55770;HPM;41687;-33.234;-60.334;2023-08-06T06:37:08;13.25;12.25
55770;HPM;41687;-33.234;-60.334;2023-08-06T06:39:36;14.00;13.00
55770;HPM;41687;-33.234;-60.334;2023-08-06T06:42:03;13.00;12.00
55770;HPM;41687;-33.234;-60.334;2023-08-06T06:44:37;13.00;12.00
55770;HPM;41687;-33.234;-60.334;2023-08-06T06:47:04;15.50;14.50
55770;HPM;41687;-33.234;-60.334;2023-08-06T06:49:32;13.25;12.25
55770;HPM;41687;-33.234;-60.334;2023-08-06T06:52:00;12.25;11.25
55770;HPM;41687;-33.234;-60.334;2023-08-06T06:54:29;12.50;11.50
55770;HPM;41687;-33.234;-60.334;2023-08-06T06:56:56;12.50;11.50
55770;HPM;41687;-33.234;-60.334;2023-08-06T06:59:24;10.00;9.00
55770;HPM;41687;-33.234;-60.334;2023-08-06T07:01:52;11.75;10.75
55770;HPM;41687;-33.234;-60.334;2023-08-06T07:04:19;10.50;9.50
55770;HPM;41687;-33.234;-60.334;2023-08-06T07:06:47;13.00;12.00
55770;HPM;41687;-33.234;-60.334;2023-08-06T07:09:14;11.75;10.75
55770;HPM;41687;-33.234;-60.334;2023-08-06T07:11:42;9.75;8.75
55770;HPM;41687;-33.234;-60.334;2023-08-06T07:14:10;9.75;8.75
55770;HPM;41687;-33.234;-60.334;2023-08-06T07:16:37;8.75;7.75
55770;HPM;41687;-33.234;-60.334;2023-08-06T07:19:04;8.75;7.75
55770;HPM;41687;-33.234;-60.334;2023-08-06T07:21:32;8.00;7.00
55770;HPM;41687;-33.234;-60.334;2023-08-06T07:24:00;7.00;6.00
55770;HPM;41687;-33.234;-60.334;2023-08-06T07:26:27;7.00;6.00
55770;HPM;41687;-33.234;-60.334;2023-08-06T07:28:55;8.00;7.00
55770;HPM;41687;-33.234;-60.334;2023-08-06T07:31:23;7.00;6.00
55770;HPM;41687;-33.234;-60.334;2023-08-06T07:33:51;8.75;7.75
55770;HPM;41687;-33.234;-60.334;2023-08-06T07:36:18;8.00;7.00
55770;HPM;41687;-33.234;-60.334;2023-08-06T07:38:46;7.00;6.00
55770;HPM;41687;-33.234;-60.334;2023-08-06T07:41:18;7.00;6.00
55770;HPM;41687;-33.234;-60.334;2023-08-06T07:43:45;7.75;6.75
55770;HPM;41687;-33.234;-60.334;2023-08-06T07:46:12;8.75;7.75
55770;HPM;41687;-33.234;-60.334;2023-08-06T07:48:40;7.75;6.75
55770;HPM;41687;-33.234;-60.334;2023-08-06T07:51:08;7.75;6.75
55770;HPM;41687;-33.234;-60.334;2023-08-06T07:53:36;9.00;8.00
55770;HPM;41687;-33.234;-60.334;2023-08-06T07:56:04;7.75;6.75
55770;HPM;41687;-33.234;-60.334;2023-08-06T07:58:31;7.75;6.75
55770;HPM;41687;-33.234;-60.334;2023-08-06T08:00:59;7.50;6.50
55770;HPM;41687;-33.234;-60.334;2023-08-06T08:03:26;9.00;8.00
55770;HPM;41687;-33.234;-60.334;2023-08-06T08:05:54;7.33;6.33
55770;HPM;41687;-33.234;-60.334;2023-08-06T08:08:25;8.00;7.00
55770;HPM;41687;-33.234;-60.334;2023-08-06T08:10:53;9.00;8.00
55770;HPM;41687;-33.234;-60.334;2023-08-06T08:13:22;8.50;7.50
55770;HPM;41687;-33.234;-60.334;2023-08-06T08:15:50;8.75;7.75
55770;HPM;41687;-33.234;-60.334;2023-08-06T08:18:27;10.00;9.00
55770;HPM;41687;-33.234;-60.334;2023-08-06T08:20:55;9.67;8.67
55770;HPM;41687;-33.234;-60.334;2023-08-06T08:23:23;10.75;9.75
55770;HPM;41687;-33.234;-60.334;2023-08-06T08:25:50;14.00;13.00
55770;HPM;41687;-33.234;-60.334;2023-08-06T08:28:19;16.75;15.75
55770;HPM;41687;-33.234;-60.334;2023-08-06T08:30:46;22.75;21.75
55770;HPM;41687;-33.234;-60.334;2023-08-06T08:33:14;28.50;26.50
55770;HPM;41687;-33.234;-60.334;2023-08-06T08:35:41;31.25;29.25
55770;HPM;41687;-33.234;-60.334;2023-08-06T08:38:09;26.75;25.00
55770;HPM;41687;-33.234;-60.334;2023-08-06T08:40:37;27.25;25.50
55770;HPM;41687;-33.234;-60.334;2023-08-06T08:43:11;25.75;24.25
55770;HPM;41687;-33.234;-60.334;2023-08-06T08:45:39;26.75;25.00
55770;HPM;41687;-33.234;-60.334;2023-08-06T08:48:09;19.75;18.75
55770;HPM;41687;-33.234;-60.334;2023-08-06T08:50:44;10.50;9.50
55770;HPM;41687;-33.234;-60.334;2023-08-06T08:53:14;8.00;7.00
55770;HPM;41687;-33.234;-60.334;2023-08-06T08:55:43;7.25;6.25
55770;HPM;41687;-33.234;-60.334;2023-08-06T08:58:14;8.00;7.00
55770;HPM;41687;-33.234;-60.334;2023-08-06T09:00:42;6.50;5.50
55770;HPM;41687;-33.234;-60.334;2023-08-06T09:03:10;7.75;6.75
55770;HPM;41687;-33.234;-60.334;2023-08-06T09:05:39;6.75;5.75
55770;HPM;41687;-33.234;-60.334;2023-08-06T09:08:11;7.00;6.00
55770;HPM;41687;-33.234;-60.334;2023-08-06T09:10:42;9.25;8.25
55770;HPM;41687;-33.234;-60.334;2023-08-06T09:13:10;8.00;7.00
55770;HPM;41687;-33.234;-60.334;2023-08-06T09:15:38;7.00;6.00
55770;HPM;41687;-33.234;-60.334;2023-08-06T09:18:09;8.00;7.00
55770;HPM;41687;-33.234;-60.334;2023-08-06T09:20:40;7.00;6.00
55770;HPM;41687;-33.234;-60.334;2023-08-06T09:23:09;8.00;7.00
55770;HPM;41687;-33.234;-60.334;2023-08-06T09:25:40;9.25;8.25
55770;HPM;41687;-33.234;-60.334;2023-08-06T09:28:08;8.25;7.25
55770;HPM;41687;-33.234;-60.334;2023-08-06T09:30:36;9.67;8.67
55770;HPM;41687;-33.234;-60.334;2023-08-06T09:33:08;9.00;8.00
55770;HPM;41687;-33.234;-60.334;2023-08-06T09:35:42;8.00;7.00
55770;HPM;41687;-33.234;-60.334;2023-08-06T09:38:09;7.75;6.75
55770;HPM;41687;-33.234;-60.334;2023-08-06T09:40:38;7.75;6.75
55770;HPM;41687;-33.234;-60.334;2023-08-06T09:43:06;9.00;8.00
55770;HPM;41687;-33.234;-60.334;2023-08-06T09:45:35;11.25;10.25
55770;HPM;41687;-33.234;-60.334;2023-08-06T09:48:08;11.00;10.00
55770;HPM;41687;-33.234;-60.334;2023-08-06T09:50:38;8.50;7.50
55770;HPM;41687;-33.234;-60.334;2023-08-06T09:53:07;10.00;9.00
55770;HPM;41687;-33.234;-60.334;2023-08-06T09:55:35;8.00;7.00
55770;HPM;41687;-33.234;-60.334;2023-08-06T09:58:04;9.33;8.33
55770;HPM;41687;-33.234;-60.334;2023-08-06T10:00:33;8.00;7.00
55770;HPM;41687;-33.234;-60.334;2023-08-06T10:03:01;7.50;6.50
55770;HPM;41687;-33.234;-60.334;2023-08-06T10:05:30;7.75;6.75
55770;HPM;41687;-33.234;-60.334;2023-08-06T10:07:59;8.75;7.75
55770;HPM;41687;-33.234;-60.334;2023-08-06T10:10:30;8.50;7.50
55770;HPM;41687;-33.234;-60.334;2023-08-06T10:12:58;8.00;7.00
55770;HPM;41687;-33.234;-60.334;2023-08-06T10:15:28;10.00;9.00
55770;HPM;41687;-33.234;-60.334;2023-08-06T10:17:58;8.50;7.50
55770;HPM;41687;-33.234;-60.334;2023-08-06T10:20:32;9.00;8.00
55770;HPM;41687;-33.234;-60.334;2023-08-06T10:23:03;9.00;8.00
55770;HPM;41687;-33.234;-60.334;2023-08-06T10:25:34;9.00;8.00
55770;HPM;41687;-33.234;-60.334;2023-08-06T10:28:07;7.67;6.67
55770;HPM;41687;-33.234;-60.334;2023-08-06T10:30:45;8.00;7.00
55770;HPM;41687;-33.234;-60.334;2023-08-06T10:33:13;8.00;7.00
55770;HPM;41687;-33.234;-60.334;2023-08-06T10:35:43;8.00;7.00
55770;HPM;41687;-33.234;-60.334;2023-08-06T10:38:15;7.75;6.75
55770;HPM;41687;-33.234;-60.334;2023-08-06T10:41:00;7.25;6.25
55770;HPM;41687;-33.234;-60.334;2023-08-06T10:43:32;8.00;7.00
55770;HPM;41687;-33.234;-60.334;2023-08-06T10:46:02;7.00;6.00
55770;HPM;41687;-33.234;-60.334;2023-08-06T10:48:37;9.50;8.50
55770;HPM;41687;-33.234;-60.334;2023-08-06T10:51:08;9.00;8.00
55770;HPM;41687;-33.234;-60.334;2023-08-06T10:53:38;9.00;8.00
55770;HPM;41687;-33.234;-60.334;2023-08-06T10:58:44;8.00;7.00
55770;HPM;41687;-33.234;-60.334;2023-08-06T11:01:12;9.00;8.00
55770;HPM;41687;-33.234;-60.334;2023-08-06T11:03:41;8.50;7.50
55770;HPM;41687;-33.234;-60.334;2023-08-06T11:06:10;7.75;6.75
55770;HPM;41687;-33.234;-60.334;2023-08-06T11:08:47;9.67;8.67
55770;HPM;41687;-33.234;-60.334;2023-08-06T11:11:19;9.25;8.25
55770;HPM;41687;-33.234;-60.334;2023-08-06T11:13:51;20.25;19.25
55770;HPM;41687;-33.234;-60.334;2023-08-06T11:16:19;13.00;12.00
55770;HPM;41687;-33.234;-60.334;2023-08-06T11:18:51;14.50;13.50
55770;HPM;41687;-33.234;-60.334;2023-08-06T11:21:20;16.75;15.75
55770;HPM;41687;-33.234;-60.334;2023-08-06T11:23:50;18.75;17.75
55770;HPM;41687;-33.234;-60.334;2023-08-06T11:26:21;15.67;14.67
55770;HPM;41687;-33.234;-60.334;2023-08-06T11:28:54;19.50;18.50
55770;HPM;41687;-33.234;-60.334;2023-08-06T11:31:22;16.25;15.25
55770;HPM;41687;-33.234;-60.334;2023-08-06T11:33:50;17.75;16.75
55770;HPM;41687;-33.234;-60.334;2023-08-06T11:36:42;18.00;17.00
55770;HPM;41687;-33.234;-60.334;2023-08-06T11:39:09;19.67;18.67
55770;HPM;41687;-33.234;-60.334;2023-08-06T11:41:37;21.75;20.75
55770;HPM;41687;-33.234;-60.334;2023-08-06T11:44:06;19.75;18.75
55770;HPM;41687;-33.234;-60.334;2023-08-06T11:46:51;18.50;17.50
55770;HPM;41687;-33.234;-60.334;2023-08-06T11:49:19;18.75;17.75
55770;HPM;41687;-33.234;-60.334;2023-08-06T11:51:47;20.00;19.00
55770;HPM;41687;-33.234;-60.334;2023-08-06T11:54:15;19.33;18.33
55770;HPM;41687;-33.234;-60.334;2023-08-06T11:56:57;21.25;20.25
55770;HPM;41687;-33.234;-60.334;2023-08-06T11:59:25;23.25;22.25
55770;HPM;41687;-33.234;-60.334;2023-08-06T12:01:53;19.33;18.33
55770;HPM;41687;-33.234;-60.334;2023-08-06T12:04:20;17.00;16.00
55770;HPM;41687;-33.234;-60.334;2023-08-06T12:06:48;17.25;16.25
55770;HPM;41687;-33.234;-60.334;2023-08-06T12:09:15;16.25;15.25
55770;HPM;41687;-33.234;-60.334;2023-08-06T12:11:43;16.00;15.00
55770;HPM;41687;-33.234;-60.334;2023-08-06T12:14:10;16.00;15.00
55770;HPM;41687;-33.234;-60.334;2023-08-06T12:16:38;14.75;13.75
55770;HPM;41687;-33.234;-60.334;2023-08-06T12:19:05;16.00;15.00
55770;HPM;41687;-33.234;-60.334;2023-08-06T12:21:33;14.00;13.00
55770;HPM;41687;-33.234;-60.334;2023-08-06T12:24:00;12.50;11.50
55770;HPM;41687;-33.234;-60.334;2023-08-06T12:26:28;14.50;13.50
55770;HPM;41687;-33.234;-60.334;2023-08-06T12:28:55;14.75;13.75
55770;HPM;41687;-33.234;-60.334;2023-08-06T12:31:24;13.00;12.00
55770;HPM;41687;-33.234;-60.334;2023-08-06T12:33:51;13.75;12.75
55770;HPM;41687;-33.234;-60.334;2023-08-06T12:36:18;15.25;14.25
55770;HPM;41687;-33.234;-60.334;2023-08-06T12:38:46;11.00;10.00
55770;HPM;41687;-33.234;-60.334;2023-08-06T12:41:14;11.75;10.75
55770;HPM;41687;-33.234;-60.334;2023-08-06T12:43:41;12.00;11.00
55770;HPM;41687;-33.234;-60.334;2023-08-06T12:46:09;11.75;10.75
55770;HPM;41687;-33.234;-60.334;2023-08-06T12:48:37;15.75;14.75
55770;HPM;41687;-33.234;-60.334;2023-08-06T12:51:06;13.00;12.00
55770;HPM;41687;-33.234;-60.334;2023-08-06T12:53:34;11.00;10.00
55770;HPM;41687;-33.234;-60.334;2023-08-06T12:56:01;16.50;15.50
55770;HPM;41687;-33.234;-60.334;2023-08-06T12:58:30;15.75;14.75
55770;HPM;41687;-33.234;-60.334;2023-08-06T13:00:58;11.75;10.75
55770;HPM;41687;-33.234;-60.334;2023-08-06T13:03:25;11.75;10.75
55770;HPM;41687;-33.234;-60.334;2023-08-06T13:05:53;13.00;12.00
55770;HPM;41687;-33.234;-60.334;2023-08-06T13:08:21;13.25;12.25
55770;HPM;41687;-33.234;-60.334;2023-08-06T13:10:49;16.33;15.33
55770;HPM;41687;-33.234;-60.334;2023-08-06T13:13:16;16.67;15.67
55770;HPM;41687;-33.234;-60.334;2023-08-06T13:15:44;15.00;14.00
55770;HPM;41687;-33.234;-60.334;2023-08-06T13:18:11;19.50;18.50
55770;HPM;41687;-33.234;-60.334;2023-08-06T13:20:39;12.75;11.75
55770;HPM;41687;-33.234;-60.334;2023-08-06T13:23:06;13.00;12.00
55770;HPM;41687;-33.234;-60.334;2023-08-06T13:25:34;12.75;11.75
55770;HPM;41687;-33.234;-60.334;2023-08-06T13:28:03;15.75;14.75
55770;HPM;41687;-33.234;-60.334;2023-08-06T13:30:31;12.25;11.25
55770;HPM;41687;-33.234;-60.334;2023-08-06T13:33:00;14.50;13.50
55770;HPM;41687;-33.234;-60.334;2023-08-06T13:35:30;13.00;12.00
55770;HPM;41687;-33.234;-60.334;2023-08-06T13:37:57;14.75;13.75
55770;HPM;41687;-33.234;-60.334;2023-08-06T13:40:25;14.00;13.00
55770;HPM;41687;-33.234;-60.334;2023-08-06T13:42:53;15.50;14.50
55770;HPM;41687;-33.234;-60.334;2023-08-06T13:45:20;18.00;17.00
55770;HPM;41687;-33.234;-60.334;2023-08-06T13:47:48;14.00;13.00
55770;HPM;41687;-33.234;-60.334;2023-08-06T13:50:16;11.00;10.00
55770;HPM;41687;-33.234;-60.334;2023-08-06T13:52:44;10.75;9.75
55770;HPM;41687;-33.234;-60.334;2023-08-06T13:55:12;14.00;13.00
55770;HPM;41687;-33.234;-60.334;2023-08-06T13:57:39;14.75;13.75
55770;HPM;41687;-33.234;-60.334;2023-08-06T14:00:08;14.50;13.50
55770;HPM;41687;-33.234;-60.334;2023-08-06T14:02:41;15.25;14.25
55770;HPM;41687;-33.234;-60.334;2023-08-06T14:05:10;12.50;11.50
55770;HPM;41687;-33.234;-60.334;2023-08-06T14:07:38;13.00;12.00
55770;HPM;41687;-33.234;-60.334;2023-08-06T14:10:06;14.75;13.75
55770;HPM;41687;-33.234;-60.334;2023-08-06T14:12:35;14.00;13.00
55770;HPM;41687;-33.234;-60.334;2023-08-06T14:15:03;14.00;13.00
55770;HPM;41687;-33.234;-60.334;2023-08-06T14:17:30;13.75;12.75
55770;HPM;41687;-33.234;-60.334;2023-08-06T14:19:58;16.50;15.50
55770;HPM;41687;-33.234;-60.334;2023-08-06T14:22:26;20.75;19.75
55770;HPM;41687;-33.234;-60.334;2023-08-06T14:24:54;15.67;14.67
55770;HPM;41687;-33.234;-60.334;2023-08-06T14:27:22;16.75;15.75
55770;HPM;41687;-33.234;-60.334;2023-08-06T14:29:49;15.00;14.00
55770;HPM;41687;-33.234;-60.334;2023-08-06T14:32:17;13.25;12.25
55770;HPM;41687;-33.234;-60.334;2023-08-06T14:34:46;14.50;13.50
55770;HPM;41687;-33.234;-60.334;2023-08-06T14:37:13;13.00;12.00
55770;HPM;41687;-33.234;-60.334;2023-08-06T14:39:40;13.00;12.00
55770;HPM;41687;-33.234;-60.334;2023-08-06T14:42:08;14.00;13.00
55770;HPM;41687;-33.234;-60.334;2023-08-06T14:44:36;15.00;14.00
55770;HPM;41687;-33.234;-60.334;2023-08-06T14:47:03;15.50;14.50
55770;HPM;41687;-33.234;-60.334;2023-08-06T14:49:31;15.50;14.50
55770;HPM;41687;-33.234;-60.334;2023-08-06T14:51:58;16.75;15.75
55770;HPM;41687;-33.234;-60.334;2023-08-06T14:54:29;19.67;18.67
55770;HPM;41687;-33.234;-60.334;2023-08-06T14:56:56;17.33;16.33
55770;HPM;41687;-33.234;-60.334;2023-08-06T14:59:24;16.33;15.33
55770;HPM;41687;-33.234;-60.334;2023-08-06T15:01:51;16.75;15.75
55770;HPM;41687;-33.234;-60.334;2023-08-06T15:04:19;17.75;16.75
55770;HPM;41687;-33.234;-60.334;2023-08-06T15:06:48;15.00;14.00
55770;HPM;41687;-33.234;-60.334;2023-08-06T15:09:16;15.50;14.50
55770;HPM;41687;-33.234;-60.334;2023-08-06T15:11:43;16.33;15.33
55770;HPM;41687;-33.234;-60.334;2023-08-06T15:14:11;21.50;20.50
55770;HPM;41687;-33.234;-60.334;2023-08-06T15:16:40;23.25;22.25
55770;HPM;41687;-33.234;-60.334;2023-08-06T15:19:08;19.00;18.00
55770;HPM;41687;-33.234;-60.334;2023-08-06T15:21:35;44.00;42.00
55770;HPM;41687;-33.234;-60.334;2023-08-06T15:24:03;34.00;32.00
55770;HPM;41687;-33.234;-60.334;2023-08-06T15:26:31;19.25;18.25
55770;HPM;41687;-33.234;-60.334;2023-08-06T15:29:00;17.75;16.75
55770;HPM;41687;-33.234;-60.334;2023-08-06T15:31:35;21.00;20.00
55770;HPM;41687;-33.234;-60.334;2023-08-06T15:34:05;22.00;21.00
55770;HPM;41687;-33.234;-60.334;2023-08-06T15:36:33;19.75;18.75
55770;HPM;41687;-33.234;-60.334;2023-08-06T15:39:02;16.75;15.75
55770;HPM;41687;-33.234;-60.334;2023-08-06T15:41:32;23.33;22.33
55770;HPM;41687;-33.234;-60.334;2023-08-06T15:43:59;20.00;19.00
55770;HPM;41687;-33.234;-60.334;2023-08-06T15:46:27;22.00;21.00
55770;HPM;41687;-33.234;-60.334;2023-08-06T15:48:55;19.00;18.00
55770;HPM;41687;-33.234;-60.334;2023-08-06T15:51:22;21.25;20.25
55770;HPM;41687;-33.234;-60.334;2023-08-06T15:53:50;21.50;20.50
55770;HPM;41687;-33.234;-60.334;2023-08-06T15:56:18;28.33;26.33
55770;HPM;41687;-33.234;-60.334;2023-08-06T15:58:45;19.00;18.00
55770;HPM;41687;-33.234;-60.334;2023-08-06T16:01:16;26.00;24.50
55770;HPM;41687;-33.234;-60.334;2023-08-06T16:03:44;25.75;24.25